sensor_id;sensor_type;location;lat;lon;timestamp;P1;durP1;ratioP1;P2;durP2;ratioP2
9240;SDS011;53485;49.326;9.738;2023-05-02T00:01:15;10.00;;;9.00;;
9240;SDS011;53485;49.326;9.738;2023-05-02T00:03:41;11.77;;;10.10;;
9240;SDS011;53485;49.326;9.738;2023-05-02T00:06:07;12.83;;;10.93;;
9240;SDS011;53485;49.326;9.738;2023-05-02T00:08:34;11.47;;;10.23;;
9240;SDS011;53485;49.326;9.738;2023-05-02T00:11:01;14.70;;;12.50;;
9240;SDS011;53485;49.326;9.738;2023-05-02T00:13:27;15.43;;;11.30;;
9240;SDS011;53485;49.326;9.738;2023-05-02T00:15:54;12.67;;;10.57;;
9240;SDS011;53485;49.326;9.738;2023-05-02T00:18:20;14.13;;;11.43;;
9240;SDS011;53485;49.326;9.738;2023-05-02T00:20:47;14.27;;;11.23;;
9240;SDS011;53485;49.326;9.738;2023-05-02T00:23:14;13.50;;;11.67;;
9240;SDS011;53485;49.326;9.738;2023-05-02T00:25:43;13.37;;;10.93;;
9240;SDS011;53485;49.326;9.738;2023-05-02T00:28:09;13.13;;;11.73;;
9240;SDS011;53485;49.326;9.738;2023-05-02T00:30:35;14.93;;;11.17;;
9240;SDS011;53485;49.326;9.738;2023-05-02T00:33:02;14.50;;;11.87;;
9240;SDS011;53485;49.326;9.738;2023-05-02T00:35:28;12.33;;;11.03;;
9240;SDS011;53485;49.326;9.738;2023-05-02T00:37:55;12.43;;;11.00;;
9240;SDS011;53485;49.326;9.738;2023-05-02T00:40:21;15.27;;;11.97;;
9240;SDS011;53485;49.326;9.738;2023-05-02T00:42:48;17.17;;;12.53;;
9240;SDS011;53485;49.326;9.738;2023-05-02T00:45:15;16.10;;;12.40;;
9240;SDS011;53485;49.326;9.738;2023-05-02T00:47:41;17.33;;;12.80;;
9240;SDS011;53485;49.326;9.738;2023-05-02T00:50:08;13.83;;;11.40;;
9240;SDS011;53485;49.326;9.738;2023-05-02T00:52:35;16.80;;;13.83;;
9240;SDS011;53485;49.326;9.738;2023-05-02T00:55:01;15.93;;;13.40;;
9240;SDS011;53485;49.326;9.738;2023-05-02T00:57:28;17.10;;;13.93;;
9240;SDS011;53485;49.326;9.738;2023-05-02T00:59:54;17.03;;;14.40;;
9240;SDS011;53485;49.326;9.738;2023-05-02T01:04:59;14.40;;;12.53;;
9240;SDS011;53485;49.326;9.738;2023-05-02T01:07:34;16.63;;;13.33;;
9240;SDS011;53485;49.326;9.738;2023-05-02T01:10:00;18.47;;;14.50;;
9240;SDS011;53485;49.326;9.738;2023-05-02T01:14:56;18.13;;;14.87;;
9240;SDS011;53485;49.326;9.738;2023-05-02T01:17:23;18.57;;;14.80;;
9240;SDS011;53485;49.326;9.738;2023-05-02T01:19:51;20.43;;;16.73;;
9240;SDS011;53485;49.326;9.738;2023-05-02T01:22:16;21.53;;;16.30;;
9240;SDS011;53485;49.326;9.738;2023-05-02T01:24:48;18.27;;;14.83;;
9240;SDS011;53485;49.326;9.738;2023-05-02T01:27:23;18.73;;;15.13;;
9240;SDS011;53485;49.326;9.738;2023-05-02T01:29:49;18.97;;;14.73;;
9240;SDS011;53485;49.326;9.738;2023-05-02T01:32:15;20.70;;;16.10;;
9240;SDS011;53485;49.326;9.738;2023-05-02T01:34:42;24.20;;;15.33;;
9240;SDS011;53485;49.326;9.738;2023-05-02T01:37:09;21.43;;;16.27;;
9240;SDS011;53485;49.326;9.738;2023-05-02T01:39:34;19.00;;;15.03;;
9240;SDS011;53485;49.326;9.738;2023-05-02T01:42:00;21.90;;;17.00;;
9240;SDS011;53485;49.326;9.738;2023-05-02T01:44:26;25.07;;;19.00;;
9240;SDS011;53485;49.326;9.738;2023-05-02T01:46:53;23.63;;;17.47;;
9240;SDS011;53485;49.326;9.738;2023-05-02T01:49:19;24.77;;;18.43;;
9240;SDS011;53485;49.326;9.738;2023-05-02T01:51:46;25.03;;;18.77;;
9240;SDS011;53485;49.326;9.738;2023-05-02T01:54:11;25.83;;;19.17;;
9240;SDS011;53485;49.326;9.738;2023-05-02T01:56:37;25.10;;;19.50;;
9240;SDS011;53485;49.326;9.738;2023-05-02T01:59:05;26.87;;;20.17;;
9240;SDS011;53485;49.326;9.738;2023-05-02T02:01:30;28.03;;;19.23;;
9240;SDS011;53485;49.326;9.738;2023-05-02T02:03:57;27.10;;;21.23;;
9240;SDS011;53485;49.326;9.738;2023-05-02T02:06:23;28.13;;;20.57;;
9240;SDS011;53485;49.326;9.738;2023-05-02T02:08:49;26.00;;;19.17;;
9240;SDS011;53485;49.326;9.738;2023-05-02T02:11:18;26.00;;;20.00;;
9240;SDS011;53485;49.326;9.738;2023-05-02T02:13:44;27.80;;;20.57;;
9240;SDS011;53485;49.326;9.738;2023-05-02T02:16:10;26.73;;;21.10;;
9240;SDS011;53485;49.326;9.738;2023-05-02T02:18:35;27.57;;;21.07;;
9240;SDS011;53485;49.326;9.738;2023-05-02T02:21:01;30.07;;;20.87;;
9240;SDS011;53485;49.326;9.738;2023-05-02T02:23:28;28.27;;;21.03;;
9240;SDS011;53485;49.326;9.738;2023-05-02T02:25:54;30.03;;;21.80;;
9240;SDS011;53485;49.326;9.738;2023-05-02T02:28:20;30.33;;;22.10;;
9240;SDS011;53485;49.326;9.738;2023-05-02T02:30:47;30.43;;;21.67;;
9240;SDS011;53485;49.326;9.738;2023-05-02T02:33:13;34.67;;;23.83;;
9240;SDS011;53485;49.326;9.738;2023-05-02T02:35:41;31.23;;;22.77;;
9240;SDS011;53485;49.326;9.738;2023-05-02T02:38:10;28.50;;;21.03;;
9240;SDS011;53485;49.326;9.738;2023-05-02T02:40:40;29.37;;;22.70;;
9240;SDS011;53485;49.326;9.738;2023-05-02T02:43:41;30.70;;;22.90;;
9240;SDS011;53485;49.326;9.738;2023-05-02T02:45:56;31.10;;;22.23;;
9240;SDS011;53485;49.326;9.738;2023-05-02T02:48:24;28.83;;;21.10;;
9240;SDS011;53485;49.326;9.738;2023-05-02T02:52:04;29.00;;;20.83;;
9240;SDS011;53485;49.326;9.738;2023-05-02T02:54:13;30.13;;;22.17;;
9240;SDS011;53485;49.326;9.738;2023-05-02T02:56:25;28.03;;;20.83;;
9240;SDS011;53485;49.326;9.738;2023-05-02T03:01:20;26.67;;;20.13;;
9240;SDS011;53485;49.326;9.738;2023-05-02T03:03:46;26.97;;;19.70;;
9240;SDS011;53485;49.326;9.738;2023-05-02T03:06:12;28.60;;;20.23;;
9240;SDS011;53485;49.326;9.738;2023-05-02T03:08:39;30.63;;;21.30;;
9240;SDS011;53485;49.326;9.738;2023-05-02T03:11:04;29.93;;;21.60;;
9240;SDS011;53485;49.326;9.738;2023-05-02T03:13:31;30.27;;;22.27;;
9240;SDS011;53485;49.326;9.738;2023-05-02T03:16:07;31.53;;;23.30;;
9240;SDS011;53485;49.326;9.738;2023-05-02T03:18:27;28.20;;;21.23;;
9240;SDS011;53485;49.326;9.738;2023-05-02T03:20:53;31.13;;;21.30;;
9240;SDS011;53485;49.326;9.738;2023-05-02T03:23:20;30.13;;;20.63;;
9240;SDS011;53485;49.326;9.738;2023-05-02T03:25:46;28.03;;;20.77;;
9240;SDS011;53485;49.326;9.738;2023-05-02T03:28:13;33.07;;;21.87;;
9240;SDS011;53485;49.326;9.738;2023-05-02T03:30:40;29.47;;;21.10;;
9240;SDS011;53485;49.326;9.738;2023-05-02T03:33:06;29.67;;;21.10;;
9240;SDS011;53485;49.326;9.738;2023-05-02T03:35:33;27.70;;;19.80;;
9240;SDS011;53485;49.326;9.738;2023-05-02T03:37:59;28.90;;;19.50;;
9240;SDS011;53485;49.326;9.738;2023-05-02T03:40:26;26.97;;;19.47;;
9240;SDS011;53485;49.326;9.738;2023-05-02T03:42:53;28.30;;;18.80;;
9240;SDS011;53485;49.326;9.738;2023-05-02T03:45:19;26.13;;;18.63;;
9240;SDS011;53485;49.326;9.738;2023-05-02T03:47:46;23.13;;;18.30;;
9240;SDS011;53485;49.326;9.738;2023-05-02T03:50:13;24.00;;;18.30;;
9240;SDS011;53485;49.326;9.738;2023-05-02T03:52:39;21.33;;;16.70;;
9240;SDS011;53485;49.326;9.738;2023-05-02T03:55:06;21.43;;;16.67;;
9240;SDS011;53485;49.326;9.738;2023-05-02T03:57:33;23.97;;;16.60;;
9240;SDS011;53485;49.326;9.738;2023-05-02T03:59:59;22.53;;;16.27;;
9240;SDS011;53485;49.326;9.738;2023-05-02T04:02:26;19.77;;;16.17;;
9240;SDS011;53485;49.326;9.738;2023-05-02T04:04:53;20.47;;;15.53;;
9240;SDS011;53485;49.326;9.738;2023-05-02T04:07:19;21.90;;;15.93;;
9240;SDS011;53485;49.326;9.738;2023-05-02T04:09:46;18.33;;;14.67;;
9240;SDS011;53485;49.326;9.738;2023-05-02T04:12:14;18.33;;;14.30;;
9240;SDS011;53485;49.326;9.738;2023-05-02T04:14:39;16.23;;;13.80;;
9240;SDS011;53485;49.326;9.738;2023-05-02T04:17:06;18.50;;;14.77;;
9240;SDS011;53485;49.326;9.738;2023-05-02T04:19:33;16.87;;;14.67;;
9240;SDS011;53485;49.326;9.738;2023-05-02T04:21:59;20.63;;;16.53;;
9240;SDS011;53485;49.326;9.738;2023-05-02T04:24:25;21.07;;;15.50;;
9240;SDS011;53485;49.326;9.738;2023-05-02T04:26:52;20.20;;;15.77;;
9240;SDS011;53485;49.326;9.738;2023-05-02T04:29:18;18.97;;;16.07;;
9240;SDS011;53485;49.326;9.738;2023-05-02T04:31:45;21.77;;;17.40;;
9240;SDS011;53485;49.326;9.738;2023-05-02T04:34:11;27.17;;;20.03;;
9240;SDS011;53485;49.326;9.738;2023-05-02T04:36:37;24.70;;;18.97;;
9240;SDS011;53485;49.326;9.738;2023-05-02T04:39:04;25.67;;;19.13;;
9240;SDS011;53485;49.326;9.738;2023-05-02T04:41:30;22.27;;;17.73;;
9240;SDS011;53485;49.326;9.738;2023-05-02T04:43:57;25.80;;;19.17;;
9240;SDS011;53485;49.326;9.738;2023-05-02T04:46:23;26.23;;;19.33;;
9240;SDS011;53485;49.326;9.738;2023-05-02T04:48:50;27.83;;;19.90;;
9240;SDS011;53485;49.326;9.738;2023-05-02T04:51:16;27.83;;;19.17;;
9240;SDS011;53485;49.326;9.738;2023-05-02T04:53:43;30.90;;;21.63;;
9240;SDS011;53485;49.326;9.738;2023-05-02T04:56:09;28.93;;;20.37;;
9240;SDS011;53485;49.326;9.738;2023-05-02T04:58:36;28.43;;;20.43;;
9240;SDS011;53485;49.326;9.738;2023-05-02T05:01:02;25.37;;;19.63;;
9240;SDS011;53485;49.326;9.738;2023-05-02T05:03:29;31.70;;;20.83;;
9240;SDS011;53485;49.326;9.738;2023-05-02T05:05:56;27.10;;;20.27;;
9240;SDS011;53485;49.326;9.738;2023-05-02T05:08:22;24.70;;;19.00;;
9240;SDS011;53485;49.326;9.738;2023-05-02T05:10:49;25.80;;;19.10;;
9240;SDS011;53485;49.326;9.738;2023-05-02T05:13:15;27.83;;;20.13;;
9240;SDS011;53485;49.326;9.738;2023-05-02T05:15:42;27.63;;;20.13;;
9240;SDS011;53485;49.326;9.738;2023-05-02T05:18:08;26.37;;;20.17;;
9240;SDS011;53485;49.326;9.738;2023-05-02T05:20:35;28.77;;;20.47;;
9240;SDS011;53485;49.326;9.738;2023-05-02T05:23:02;27.73;;;20.23;;
9240;SDS011;53485;49.326;9.738;2023-05-02T05:25:28;25.90;;;19.67;;
9240;SDS011;53485;49.326;9.738;2023-05-02T05:27:55;29.57;;;19.60;;
9240;SDS011;53485;49.326;9.738;2023-05-02T05:30:21;24.10;;;18.60;;
9240;SDS011;53485;49.326;9.738;2023-05-02T05:32:48;23.27;;;19.30;;
9240;SDS011;53485;49.326;9.738;2023-05-02T05:35:15;26.60;;;18.93;;
9240;SDS011;53485;49.326;9.738;2023-05-02T05:37:41;25.53;;;18.53;;
9240;SDS011;53485;49.326;9.738;2023-05-02T05:40:07;23.30;;;18.40;;
9240;SDS011;53485;49.326;9.738;2023-05-02T05:42:34;25.97;;;18.77;;
9240;SDS011;53485;49.326;9.738;2023-05-02T05:45:01;21.17;;;17.17;;
9240;SDS011;53485;49.326;9.738;2023-05-02T05:47:27;23.67;;;17.43;;
9240;SDS011;53485;49.326;9.738;2023-05-02T05:49:54;19.10;;;16.20;;
9240;SDS011;53485;49.326;9.738;2023-05-02T05:52:20;21.60;;;17.23;;
9240;SDS011;53485;49.326;9.738;2023-05-02T05:54:47;19.27;;;15.43;;
9240;SDS011;53485;49.326;9.738;2023-05-02T05:57:13;17.27;;;15.00;;
9240;SDS011;53485;49.326;9.738;2023-05-02T05:59:39;18.80;;;14.47;;
9240;SDS011;53485;49.326;9.738;2023-05-02T06:02:06;15.17;;;13.23;;
9240;SDS011;53485;49.326;9.738;2023-05-02T06:04:33;16.53;;;13.93;;
9240;SDS011;53485;49.326;9.738;2023-05-02T06:06:59;16.00;;;14.07;;
9240;SDS011;53485;49.326;9.738;2023-05-02T06:09:26;17.30;;;14.50;;
9240;SDS011;53485;49.326;9.738;2023-05-02T06:11:52;17.80;;;13.53;;
9240;SDS011;53485;49.326;9.738;2023-05-02T06:14:19;19.67;;;14.67;;
9240;SDS011;53485;49.326;9.738;2023-05-02T06:16:46;16.57;;;14.50;;
9240;SDS011;53485;49.326;9.738;2023-05-02T06:19:12;20.73;;;15.93;;
9240;SDS011;53485;49.326;9.738;2023-05-02T06:21:39;18.53;;;15.33;;
9240;SDS011;53485;49.326;9.738;2023-05-02T06:24:05;17.57;;;14.93;;
9240;SDS011;53485;49.326;9.738;2023-05-02T06:26:32;18.33;;;15.30;;
9240;SDS011;53485;49.326;9.738;2023-05-02T06:28:58;18.53;;;14.53;;
9240;SDS011;53485;49.326;9.738;2023-05-02T06:31:25;19.37;;;13.97;;
9240;SDS011;53485;49.326;9.738;2023-05-02T06:33:51;15.80;;;14.10;;
9240;SDS011;53485;49.326;9.738;2023-05-02T06:36:18;16.73;;;13.80;;
9240;SDS011;53485;49.326;9.738;2023-05-02T06:38:44;17.30;;;14.37;;
9240;SDS011;53485;49.326;9.738;2023-05-02T06:41:12;17.03;;;14.00;;
9240;SDS011;53485;49.326;9.738;2023-05-02T06:43:37;16.40;;;13.70;;
9240;SDS011;53485;49.326;9.738;2023-05-02T06:46:04;15.87;;;14.13;;
9240;SDS011;53485;49.326;9.738;2023-05-02T06:48:31;17.13;;;13.23;;
9240;SDS011;53485;49.326;9.738;2023-05-02T06:50:57;16.63;;;12.97;;
9240;SDS011;53485;49.326;9.738;2023-05-02T06:53:24;15.10;;;13.50;;
9240;SDS011;53485;49.326;9.738;2023-05-02T06:55:51;14.07;;;12.43;;
9240;SDS011;53485;49.326;9.738;2023-05-02T06:58:17;14.07;;;12.57;;
9240;SDS011;53485;49.326;9.738;2023-05-02T07:00:44;16.53;;;12.87;;
9240;SDS011;53485;49.326;9.738;2023-05-02T07:03:10;13.97;;;12.47;;
9240;SDS011;53485;49.326;9.738;2023-05-02T07:05:37;13.40;;;11.73;;
9240;SDS011;53485;49.326;9.738;2023-05-02T07:08:03;16.57;;;11.80;;
9240;SDS011;53485;49.326;9.738;2023-05-02T07:10:30;13.53;;;12.07;;
9240;SDS011;53485;49.326;9.738;2023-05-02T07:12:57;13.07;;;11.67;;
9240;SDS011;53485;49.326;9.738;2023-05-02T07:15:23;13.70;;;11.83;;
9240;SDS011;53485;49.326;9.738;2023-05-02T07:17:50;12.80;;;11.50;;
9240;SDS011;53485;49.326;9.738;2023-05-02T07:20:17;13.33;;;11.57;;
9240;SDS011;53485;49.326;9.738;2023-05-02T07:22:43;12.50;;;11.20;;
9240;SDS011;53485;49.326;9.738;2023-05-02T07:25:10;14.33;;;11.27;;
9240;SDS011;53485;49.326;9.738;2023-05-02T07:27:37;14.67;;;11.33;;
9240;SDS011;53485;49.326;9.738;2023-05-02T07:30:04;12.83;;;11.47;;
9240;SDS011;53485;49.326;9.738;2023-05-02T07:32:30;13.20;;;11.60;;
9240;SDS011;53485;49.326;9.738;2023-05-02T07:34:56;12.83;;;11.53;;
9240;SDS011;53485;49.326;9.738;2023-05-02T07:37:22;12.73;;;11.40;;
9240;SDS011;53485;49.326;9.738;2023-05-02T07:39:49;13.47;;;11.17;;
9240;SDS011;53485;49.326;9.738;2023-05-02T07:42:16;14.80;;;12.17;;
9240;SDS011;53485;49.326;9.738;2023-05-02T07:44:42;14.43;;;12.03;;
9240;SDS011;53485;49.326;9.738;2023-05-02T07:47:09;13.67;;;11.33;;
9240;SDS011;53485;49.326;9.738;2023-05-02T07:49:36;14.37;;;12.03;;
9240;SDS011;53485;49.326;9.738;2023-05-02T07:52:03;16.60;;;11.70;;
9240;SDS011;53485;49.326;9.738;2023-05-02T07:54:29;13.23;;;11.80;;
9240;SDS011;53485;49.326;9.738;2023-05-02T07:56:55;14.30;;;11.37;;
9240;SDS011;53485;49.326;9.738;2023-05-02T07:59:22;13.93;;;11.53;;
9240;SDS011;53485;49.326;9.738;2023-05-02T08:01:48;17.10;;;13.60;;
9240;SDS011;53485;49.326;9.738;2023-05-02T08:04:15;14.63;;;12.13;;
9240;SDS011;53485;49.326;9.738;2023-05-02T08:06:43;15.10;;;11.60;;
9240;SDS011;53485;49.326;9.738;2023-05-02T08:09:08;14.27;;;11.30;;
9240;SDS011;53485;49.326;9.738;2023-05-02T08:11:35;21.80;;;17.13;;
9240;SDS011;53485;49.326;9.738;2023-05-02T08:14:01;13.87;;;12.43;;
9240;SDS011;53485;49.326;9.738;2023-05-02T08:16:28;13.17;;;11.03;;
9240;SDS011;53485;49.326;9.738;2023-05-02T08:18:54;14.80;;;13.07;;
9240;SDS011;53485;49.326;9.738;2023-05-02T08:21:21;16.03;;;13.17;;
9240;SDS011;53485;49.326;9.738;2023-05-02T08:23:47;15.20;;;12.20;;
9240;SDS011;53485;49.326;9.738;2023-05-02T08:26:14;14.20;;;12.70;;
9240;SDS011;53485;49.326;9.738;2023-05-02T08:28:40;16.03;;;12.97;;
9240;SDS011;53485;49.326;9.738;2023-05-02T08:31:07;27.57;;;13.53;;
9240;SDS011;53485;49.326;9.738;2023-05-02T08:33:34;15.73;;;12.00;;
9240;SDS011;53485;49.326;9.738;2023-05-02T08:36:08;13.47;;;12.07;;
9240;SDS011;53485;49.326;9.738;2023-05-02T08:38:27;12.77;;;11.47;;
9240;SDS011;53485;49.326;9.738;2023-05-02T08:40:53;14.67;;;11.73;;
9240;SDS011;53485;49.326;9.738;2023-05-02T08:43:20;14.37;;;11.87;;
9240;SDS011;53485;49.326;9.738;2023-05-02T08:45:46;14.37;;;12.87;;
9240;SDS011;53485;49.326;9.738;2023-05-02T08:48:13;14.60;;;13.07;;
9240;SDS011;53485;49.326;9.738;2023-05-02T08:50:40;14.00;;;12.70;;
9240;SDS011;53485;49.326;9.738;2023-05-02T08:53:05;15.43;;;13.07;;
9240;SDS011;53485;49.326;9.738;2023-05-02T08:55:32;15.40;;;13.67;;
9240;SDS011;53485;49.326;9.738;2023-05-02T08:57:57;12.77;;;10.83;;
9240;SDS011;53485;49.326;9.738;2023-05-02T09:00:24;15.37;;;13.77;;
9240;SDS011;53485;49.326;9.738;2023-05-02T09:02:55;15.60;;;13.87;;
9240;SDS011;53485;49.326;9.738;2023-05-02T09:05:18;13.77;;;12.47;;
9240;SDS011;53485;49.326;9.738;2023-05-02T09:07:44;11.83;;;10.63;;
9240;SDS011;53485;49.326;9.738;2023-05-02T09:10:10;15.67;;;13.03;;
9240;SDS011;53485;49.326;9.738;2023-05-02T09:12:36;15.97;;;12.80;;
9240;SDS011;53485;49.326;9.738;2023-05-02T09:15:11;16.03;;;12.90;;
9240;SDS011;53485;49.326;9.738;2023-05-02T09:17:40;14.77;;;12.90;;
9240;SDS011;53485;49.326;9.738;2023-05-02T09:20:06;15.77;;;13.97;;
9240;SDS011;53485;49.326;9.738;2023-05-02T09:22:32;14.30;;;12.80;;
9240;SDS011;53485;49.326;9.738;2023-05-02T09:24:59;14.50;;;13.00;;
9240;SDS011;53485;49.326;9.738;2023-05-02T09:27:26;15.10;;;12.63;;
9240;SDS011;53485;49.326;9.738;2023-05-02T09:29:52;14.27;;;12.33;;
9240;SDS011;53485;49.326;9.738;2023-05-02T09:32:18;14.60;;;13.10;;
9240;SDS011;53485;49.326;9.738;2023-05-02T09:35:03;14.17;;;12.83;;
9240;SDS011;53485;49.326;9.738;2023-05-02T09:37:32;15.47;;;13.33;;
9240;SDS011;53485;49.326;9.738;2023-05-02T09:40:04;13.73;;;12.40;;
9240;SDS011;53485;49.326;9.738;2023-05-02T09:42:30;19.00;;;13.73;;
9240;SDS011;53485;49.326;9.738;2023-05-02T09:44:56;13.60;;;12.20;;
9240;SDS011;53485;49.326;9.738;2023-05-02T09:47:24;14.97;;;13.27;;
9240;SDS011;53485;49.326;9.738;2023-05-02T09:49:50;14.17;;;12.37;;
9240;SDS011;53485;49.326;9.738;2023-05-02T09:52:17;14.40;;;12.20;;
9240;SDS011;53485;49.326;9.738;2023-05-02T09:54:43;12.90;;;11.57;;
9240;SDS011;53485;49.326;9.738;2023-05-02T09:57:09;14.20;;;11.43;;
9240;SDS011;53485;49.326;9.738;2023-05-02T09:59:35;13.07;;;11.93;;
9240;SDS011;53485;49.326;9.738;2023-05-02T10:02:02;11.20;;;10.10;;
9240;SDS011;53485;49.326;9.738;2023-05-02T10:04:29;10.60;;;9.53;;
9240;SDS011;53485;49.326;9.738;2023-05-02T10:06:54;12.27;;;11.17;;
9240;SDS011;53485;49.326;9.738;2023-05-02T10:09:20;10.60;;;9.63;;
9240;SDS011;53485;49.326;9.738;2023-05-02T10:11:47;11.60;;;10.53;;
9240;SDS011;53485;49.326;9.738;2023-05-02T10:14:12;11.10;;;10.10;;
9240;SDS011;53485;49.326;9.738;2023-05-02T10:16:41;12.43;;;11.17;;
9240;SDS011;53485;49.326;9.738;2023-05-02T10:19:06;18.40;;;11.40;;
9240;SDS011;53485;49.326;9.738;2023-05-02T10:21:31;9.87;;;8.87;;
9240;SDS011;53485;49.326;9.738;2023-05-02T10:23:57;12.73;;;11.53;;
9240;SDS011;53485;49.326;9.738;2023-05-02T10:26:23;12.03;;;10.80;;
9240;SDS011;53485;49.326;9.738;2023-05-02T10:28:49;11.57;;;10.37;;
9240;SDS011;53485;49.326;9.738;2023-05-02T10:31:17;13.17;;;11.77;;
9240;SDS011;53485;49.326;9.738;2023-05-02T10:33:42;12.90;;;11.70;;
9240;SDS011;53485;49.326;9.738;2023-05-02T10:36:09;13.07;;;11.77;;
9240;SDS011;53485;49.326;9.738;2023-05-02T10:38:35;12.83;;;11.63;;
9240;SDS011;53485;49.326;9.738;2023-05-02T10:41:04;11.17;;;10.07;;
9240;SDS011;53485;49.326;9.738;2023-05-02T10:43:29;13.23;;;11.93;;
9240;SDS011;53485;49.326;9.738;2023-05-02T10:45:53;12.73;;;11.57;;
9240;SDS011;53485;49.326;9.738;2023-05-02T10:48:20;19.80;;;17.87;;
9240;SDS011;53485;49.326;9.738;2023-05-02T10:50:46;13.50;;;12.27;;
9240;SDS011;53485;49.326;9.738;2023-05-02T10:55:44;13.27;;;11.93;;
9240;SDS011;53485;49.326;9.738;2023-05-02T10:58:19;17.80;;;16.00;;
9240;SDS011;53485;49.326;9.738;2023-05-02T11:00:45;13.43;;;12.03;;
9240;SDS011;53485;49.326;9.738;2023-05-02T11:03:12;14.03;;;12.63;;
9240;SDS011;53485;49.326;9.738;2023-05-02T11:08:29;14.23;;;12.67;;
9240;SDS011;53485;49.326;9.738;2023-05-02T11:10:55;14.07;;;12.57;;
9240;SDS011;53485;49.326;9.738;2023-05-02T11:15:54;12.47;;;11.17;;
9240;SDS011;53485;49.326;9.738;2023-05-02T11:18:20;12.43;;;11.23;;
9240;SDS011;53485;49.326;9.738;2023-05-02T11:20:47;15.30;;;12.40;;
9240;SDS011;53485;49.326;9.738;2023-05-02T11:25:47;14.97;;;13.50;;
9240;SDS011;53485;49.326;9.738;2023-05-02T11:30:45;11.77;;;10.57;;
9240;SDS011;53485;49.326;9.738;2023-05-02T11:33:12;11.00;;;9.87;;
9240;SDS011;53485;49.326;9.738;2023-05-02T11:35:37;9.57;;;8.57;;
9240;SDS011;53485;49.326;9.738;2023-05-02T11:38:10;8.93;;;8.13;;
9240;SDS011;53485;49.326;9.738;2023-05-02T11:40:30;11.87;;;8.50;;
9240;SDS011;53485;49.326;9.738;2023-05-02T11:42:57;8.97;;;8.07;;
9240;SDS011;53485;49.326;9.738;2023-05-02T11:45:37;8.57;;;7.53;;
9240;SDS011;53485;49.326;9.738;2023-05-02T11:48:04;8.27;;;7.50;;
9240;SDS011;53485;49.326;9.738;2023-05-02T11:50:32;8.73;;;7.77;;
9240;SDS011;53485;49.326;9.738;2023-05-02T11:52:57;8.97;;;7.57;;
9240;SDS011;53485;49.326;9.738;2023-05-02T11:55:24;7.77;;;6.97;;
9240;SDS011;53485;49.326;9.738;2023-05-02T11:57:50;6.87;;;6.17;;
9240;SDS011;53485;49.326;9.738;2023-05-02T12:00:17;6.17;;;5.67;;
9240;SDS011;53485;49.326;9.738;2023-05-02T12:02:45;5.20;;;4.80;;
9240;SDS011;53485;49.326;9.738;2023-05-02T12:05:11;4.67;;;4.27;;
9240;SDS011;53485;49.326;9.738;2023-05-02T12:07:37;4.37;;;4.07;;
9240;SDS011;53485;49.326;9.738;2023-05-02T12:10:03;4.67;;;4.27;;
9240;SDS011;53485;49.326;9.738;2023-05-02T12:12:30;4.27;;;3.83;;
9240;SDS011;53485;49.326;9.738;2023-05-02T12:14:56;4.23;;;3.90;;
9240;SDS011;53485;49.326;9.738;2023-05-02T12:17:22;5.40;;;4.67;;
9240;SDS011;53485;49.326;9.738;2023-05-02T12:19:49;5.57;;;5.00;;
9240;SDS011;53485;49.326;9.738;2023-05-02T12:22:15;5.20;;;4.53;;
9240;SDS011;53485;49.326;9.738;2023-05-02T12:24:41;5.80;;;5.23;;
9240;SDS011;53485;49.326;9.738;2023-05-02T12:27:08;6.13;;;5.53;;
9240;SDS011;53485;49.326;9.738;2023-05-02T12:29:36;4.60;;;4.20;;
9240;SDS011;53485;49.326;9.738;2023-05-02T12:32:02;4.13;;;3.83;;
9240;SDS011;53485;49.326;9.738;2023-05-02T12:34:31;4.87;;;4.37;;
9240;SDS011;53485;49.326;9.738;2023-05-02T12:36:56;3.67;;;3.37;;
9240;SDS011;53485;49.326;9.738;2023-05-02T12:41:55;4.20;;;3.40;;
9240;SDS011;53485;49.326;9.738;2023-05-02T12:46:58;5.90;;;4.30;;
9240;SDS011;53485;49.326;9.738;2023-05-02T12:49:24;6.63;;;6.03;;
9240;SDS011;53485;49.326;9.738;2023-05-02T12:51:52;5.50;;;5.00;;
9240;SDS011;53485;49.326;9.738;2023-05-02T12:54:19;6.60;;;5.73;;
9240;SDS011;53485;49.326;9.738;2023-05-02T12:56:45;10.20;;;7.43;;
9240;SDS011;53485;49.326;9.738;2023-05-02T13:01:44;5.50;;;5.00;;
9240;SDS011;53485;49.326;9.738;2023-05-02T13:04:10;5.50;;;5.00;;
9240;SDS011;53485;49.326;9.738;2023-05-02T13:06:37;4.73;;;2.97;;
9240;SDS011;53485;49.326;9.738;2023-05-02T13:09:03;4.73;;;3.43;;
9240;SDS011;53485;49.326;9.738;2023-05-02T13:11:30;2.47;;;2.30;;
9240;SDS011;53485;49.326;9.738;2023-05-02T13:13:56;2.23;;;2.03;;
9240;SDS011;53485;49.326;9.738;2023-05-02T13:16:23;2.93;;;2.00;;
9240;SDS011;53485;49.326;9.738;2023-05-02T13:18:49;2.50;;;2.30;;
9240;SDS011;53485;49.326;9.738;2023-05-02T13:21:16;2.63;;;2.43;;
9240;SDS011;53485;49.326;9.738;2023-05-02T13:23:43;2.47;;;2.27;;
9240;SDS011;53485;49.326;9.738;2023-05-02T13:26:09;3.40;;;3.10;;
9240;SDS011;53485;49.326;9.738;2023-05-02T13:28:35;4.37;;;4.00;;
9240;SDS011;53485;49.326;9.738;2023-05-02T13:31:01;4.47;;;4.07;;
9240;SDS011;53485;49.326;9.738;2023-05-02T13:33:28;7.23;;;5.60;;
9240;SDS011;53485;49.326;9.738;2023-05-02T13:35:54;6.00;;;5.37;;
9240;SDS011;53485;49.326;9.738;2023-05-02T13:38:21;5.20;;;4.73;;
9240;SDS011;53485;49.326;9.738;2023-05-02T13:40:48;5.97;;;5.00;;
9240;SDS011;53485;49.326;9.738;2023-05-02T13:43:14;10.53;;;9.63;;
9240;SDS011;53485;49.326;9.738;2023-05-02T13:45:40;5.37;;;4.87;;
9240;SDS011;53485;49.326;9.738;2023-05-02T13:48:07;5.43;;;4.90;;
9240;SDS011;53485;49.326;9.738;2023-05-02T13:50:34;4.77;;;3.23;;
9240;SDS011;53485;49.326;9.738;2023-05-02T13:53:00;4.43;;;4.03;;
9240;SDS011;53485;49.326;9.738;2023-05-02T13:55:27;3.70;;;3.37;;
9240;SDS011;53485;49.326;9.738;2023-05-02T13:57:53;4.57;;;4.17;;
9240;SDS011;53485;49.326;9.738;2023-05-02T14:00:20;5.73;;;4.20;;
9240;SDS011;53485;49.326;9.738;2023-05-02T14:02:47;3.63;;;3.33;;
9240;SDS011;53485;49.326;9.738;2023-05-02T14:05:13;10.13;;;5.43;;
9240;SDS011;53485;49.326;9.738;2023-05-02T14:07:39;5.17;;;3.13;;
9240;SDS011;53485;49.326;9.738;2023-05-02T14:10:06;3.60;;;3.30;;
9240;SDS011;53485;49.326;9.738;2023-05-02T14:12:33;5.90;;;3.47;;
9240;SDS011;53485;49.326;9.738;2023-05-02T14:14:59;5.47;;;4.97;;
9240;SDS011;53485;49.326;9.738;2023-05-02T14:17:26;3.67;;;2.70;;
9240;SDS011;53485;49.326;9.738;2023-05-02T14:19:53;4.07;;;3.67;;
9240;SDS011;53485;49.326;9.738;2023-05-02T14:22:19;3.67;;;3.40;;
9240;SDS011;53485;49.326;9.738;2023-05-02T14:24:46;3.23;;;2.90;;
9240;SDS011;53485;49.326;9.738;2023-05-02T14:27:12;3.30;;;3.00;;
9240;SDS011;53485;49.326;9.738;2023-05-02T14:29:39;5.87;;;3.50;;
9240;SDS011;53485;49.326;9.738;2023-05-02T14:32:05;3.47;;;3.17;;
9240;SDS011;53485;49.326;9.738;2023-05-02T14:34:32;3.43;;;3.20;;
9240;SDS011;53485;49.326;9.738;2023-05-02T14:36:59;4.07;;;3.10;;
9240;SDS011;53485;49.326;9.738;2023-05-02T14:39:25;3.00;;;2.80;;
9240;SDS011;53485;49.326;9.738;2023-05-02T14:41:52;2.83;;;2.53;;
9240;SDS011;53485;49.326;9.738;2023-05-02T14:44:18;3.03;;;2.83;;
9240;SDS011;53485;49.326;9.738;2023-05-02T14:46:45;4.47;;;3.53;;
9240;SDS011;53485;49.326;9.738;2023-05-02T14:49:12;4.27;;;2.73;;
9240;SDS011;53485;49.326;9.738;2023-05-02T14:51:38;6.60;;;6.00;;
9240;SDS011;53485;49.326;9.738;2023-05-02T14:54:05;3.63;;;2.90;;
9240;SDS011;53485;49.326;9.738;2023-05-02T14:56:31;3.23;;;2.90;;
9240;SDS011;53485;49.326;9.738;2023-05-02T14:58:58;5.93;;;3.50;;
9240;SDS011;53485;49.326;9.738;2023-05-02T15:01:24;6.57;;;5.33;;
9240;SDS011;53485;49.326;9.738;2023-05-02T15:03:51;11.57;;;9.30;;
9240;SDS011;53485;49.326;9.738;2023-05-02T15:06:17;4.90;;;4.47;;